sensor_id;sensor_type;location;lat;lon;timestamp;temperature;humidity
23471;DHT22;11908;50.806;4.424;2023-04-15T00:00:37;10.30;99.90
23471;DHT22;11908;50.806;4.424;2023-04-15T00:03:03;10.40;99.90
23471;DHT22;11908;50.806;4.424;2023-04-15T00:05:30;10.50;99.90
23471;DHT22;11908;50.806;4.424;2023-04-15T00:07:56;10.60;99.90
23471;DHT22;11908;50.806;4.424;2023-04-15T00:10:23;10.50;99.90
23471;DHT22;11908;50.806;4.424;2023-04-15T00:12:49;10.60;99.90
23471;DHT22;11908;50.806;4.424;2023-04-15T00:15:15;10.50;99.90
23471;DHT22;11908;50.806;4.424;2023-04-15T00:17:41;10.60;99.90
23471;DHT22;11908;50.806;4.424;2023-04-15T00:20:07;10.60;99.90
23471;DHT22;11908;50.806;4.424;2023-04-15T00:22:33;10.60;99.90
23471;DHT22;11908;50.806;4.424;2023-04-15T00:24:59;10.60;99.90
23471;DHT22;11908;50.806;4.424;2023-04-15T00:27:24;10.50;99.90
23471;DHT22;11908;50.806;4.424;2023-04-15T00:29:50;10.50;99.90
23471;DHT22;11908;50.806;4.424;2023-04-15T00:32:16;10.50;99.90
23471;DHT22;11908;50.806;4.424;2023-04-15T00:34:41;10.50;99.90
23471;DHT22;11908;50.806;4.424;2023-04-15T00:37:08;10.50;99.90
23471;DHT22;11908;50.806;4.424;2023-04-15T00:39:35;10.60;99.90
23471;DHT22;11908;50.806;4.424;2023-04-15T00:42:01;10.60;99.90
23471;DHT22;11908;50.806;4.424;2023-04-15T00:44:28;10.60;99.90
23471;DHT22;11908;50.806;4.424;2023-04-15T00:46:54;10.60;99.90
23471;DHT22;11908;50.806;4.424;2023-04-15T00:49:20;10.60;99.90
23471;DHT22;11908;50.806;4.424;2023-04-15T00:51:45;10.60;99.90
23471;DHT22;11908;50.806;4.424;2023-04-15T00:54:11;10.40;99.90
23471;DHT22;11908;50.806;4.424;2023-04-15T00:56:38;10.40;99.90
23471;DHT22;11908;50.806;4.424;2023-04-15T00:59:04;10.50;99.90
23471;DHT22;11908;50.806;4.424;2023-04-15T01:01:34;10.50;99.90
23471;DHT22;11908;50.806;4.424;2023-04-15T01:04:00;10.60;99.90
23471;DHT22;11908;50.806;4.424;2023-04-15T01:06:25;10.60;99.90
23471;DHT22;11908;50.806;4.424;2023-04-15T01:08:56;10.40;99.90
23471;DHT22;11908;50.806;4.424;2023-04-15T01:11:22;10.40;99.90
23471;DHT22;11908;50.806;4.424;2023-04-15T01:13:49;10.40;99.90
23471;DHT22;11908;50.806;4.424;2023-04-15T01:16:15;10.30;99.90
23471;DHT22;11908;50.806;4.424;2023-04-15T01:18:41;10.20;99.90
23471;DHT22;11908;50.806;4.424;2023-04-15T01:21:07;10.20;99.90
23471;DHT22;11908;50.806;4.424;2023-04-15T01:23:35;10.20;99.90
23471;DHT22;11908;50.806;4.424;2023-04-15T01:26:03;10.20;99.90
23471;DHT22;11908;50.806;4.424;2023-04-15T01:28:29;10.20;99.90
23471;DHT22;11908;50.806;4.424;2023-04-15T01:31:12;10.30;99.90
23471;DHT22;11908;50.806;4.424;2023-04-15T01:33:41;10.40;99.90
23471;DHT22;11908;50.806;4.424;2023-04-15T01:36:08;10.50;99.90
23471;DHT22;11908;50.806;4.424;2023-04-15T01:38:35;10.60;99.90
23471;DHT22;11908;50.806;4.424;2023-04-15T01:41:01;10.60;99.90
23471;DHT22;11908;50.806;4.424;2023-04-15T01:43:28;10.50;99.90
23471;DHT22;11908;50.806;4.424;2023-04-15T01:45:54;10.50;99.90
23471;DHT22;11908;50.806;4.424;2023-04-15T01:48:21;10.50;99.90
23471;DHT22;11908;50.806;4.424;2023-04-15T01:50:47;10.50;99.90
23471;DHT22;11908;50.806;4.424;2023-04-15T01:53:13;10.50;99.90
23471;DHT22;11908;50.806;4.424;2023-04-15T01:55:40;10.40;99.90
23471;DHT22;11908;50.806;4.424;2023-04-15T01:58:06;10.50;99.90
23471;DHT22;11908;50.806;4.424;2023-04-15T02:00:32;10.40;99.90
23471;DHT22;11908;50.806;4.424;2023-04-15T02:02:58;10.30;99.90
23471;DHT22;11908;50.806;4.424;2023-04-15T02:05:24;10.40;99.90
23471;DHT22;11908;50.806;4.424;2023-04-15T02:07:50;10.40;99.90
23471;DHT22;11908;50.806;4.424;2023-04-15T02:10:16;10.20;99.90
23471;DHT22;11908;50.806;4.424;2023-04-15T02:12:42;10.30;99.90
23471;DHT22;11908;50.806;4.424;2023-04-15T02:15:08;10.30;99.90
23471;DHT22;11908;50.806;4.424;2023-04-15T02:17:35;10.40;99.90
23471;DHT22;11908;50.806;4.424;2023-04-15T02:20:01;10.40;99.90
23471;DHT22;11908;50.806;4.424;2023-04-15T02:22:26;10.50;99.90
23471;DHT22;11908;50.806;4.424;2023-04-15T02:24:53;10.50;99.90
23471;DHT22;11908;50.806;4.424;2023-04-15T02:27:18;10.50;99.90
23471;DHT22;11908;50.806;4.424;2023-04-15T02:29:44;10.50;99.90
23471;DHT22;11908;50.806;4.424;2023-04-15T02:32:11;10.40;99.90
23471;DHT22;11908;50.806;4.424;2023-04-15T02:34:38;10.40;99.90
23471;DHT22;11908;50.806;4.424;2023-04-15T02:37:06;10.50;99.90
23471;DHT22;11908;50.806;4.424;2023-04-15T02:39:32;10.40;99.90
23471;DHT22;11908;50.806;4.424;2023-04-15T02:41:58;10.50;99.90
23471;DHT22;11908;50.806;4.424;2023-04-15T02:44:25;10.50;99.90
23471;DHT22;11908;50.806;4.424;2023-04-15T02:46:52;10.50;99.90
23471;DHT22;11908;50.806;4.424;2023-04-15T02:49:19;10.40;99.90
23471;DHT22;11908;50.806;4.424;2023-04-15T02:51:45;10.50;99.90
23471;DHT22;11908;50.806;4.424;2023-04-15T02:54:20;10.50;99.90
23471;DHT22;11908;50.806;4.424;2023-04-15T02:56:47;10.60;99.90
23471;DHT22;11908;50.806;4.424;2023-04-15T02:59:13;10.50;99.90
23471;DHT22;11908;50.806;4.424;2023-04-15T03:01:38;10.40;99.90
23471;DHT22;11908;50.806;4.424;2023-04-15T03:04:04;10.30;99.90
23471;DHT22;11908;50.806;4.424;2023-04-15T03:06:32;10.20;99.90
23471;DHT22;11908;50.806;4.424;2023-04-15T03:08:57;10.30;99.90
23471;DHT22;11908;50.806;4.424;2023-04-15T03:11:24;10.40;99.90
23471;DHT22;11908;50.806;4.424;2023-04-15T03:13:51;10.20;99.90
23471;DHT22;11908;50.806;4.424;2023-04-15T03:16:17;10.10;99.90
23471;DHT22;11908;50.806;4.424;2023-04-15T03:18:43;10.00;99.90
23471;DHT22;11908;50.806;4.424;2023-04-15T03:21:08;10.10;99.90
23471;DHT22;11908;50.806;4.424;2023-04-15T03:23:34;10.00;99.90
23471;DHT22;11908;50.806;4.424;2023-04-15T03:26:03;10.00;99.90
23471;DHT22;11908;50.806;4.424;2023-04-15T03:28:30;10.00;99.90
23471;DHT22;11908;50.806;4.424;2023-04-15T03:30:55;10.00;99.90
23471;DHT22;11908;50.806;4.424;2023-04-15T03:33:21;10.00;99.90
23471;DHT22;11908;50.806;4.424;2023-04-15T03:35:47;10.00;99.90
23471;DHT22;11908;50.806;4.424;2023-04-15T03:38:12;10.00;99.90
23471;DHT22;11908;50.806;4.424;2023-04-15T03:40:40;10.00;99.90
23471;DHT22;11908;50.806;4.424;2023-04-15T03:43:06;10.00;99.90
23471;DHT22;11908;50.806;4.424;2023-04-15T03:45:32;10.10;99.90
23471;DHT22;11908;50.806;4.424;2023-04-15T03:47:57;10.20;99.90
23471;DHT22;11908;50.806;4.424;2023-04-15T03:50:23;10.20;99.90
23471;DHT22;11908;50.806;4.424;2023-04-15T03:52:49;10.20;99.90
23471;DHT22;11908;50.806;4.424;2023-04-15T03:55:15;10.30;99.90
23471;DHT22;11908;50.806;4.424;2023-04-15T03:57:40;10.20;99.90
23471;DHT22;11908;50.806;4.424;2023-04-15T04:00:07;10.10;99.90
23471;DHT22;11908;50.806;4.424;2023-04-15T04:02:33;10.10;99.90
23471;DHT22;11908;50.806;4.424;2023-04-15T04:04:59;10.00;99.90
23471;DHT22;11908;50.806;4.424;2023-04-15T04:07:25;10.00;99.90
23471;DHT22;11908;50.806;4.424;2023-04-15T04:09:51;10.00;99.90
23471;DHT22;11908;50.806;4.424;2023-04-15T04:12:17;10.00;99.90
23471;DHT22;11908;50.806;4.424;2023-04-15T04:14:42;9.90;99.90
23471;DHT22;11908;50.806;4.424;2023-04-15T04:17:08;10.00;99.90
23471;DHT22;11908;50.806;4.424;2023-04-15T04:19:34;9.80;99.90
23471;DHT22;11908;50.806;4.424;2023-04-15T04:22:00;9.70;99.90
23471;DHT22;11908;50.806;4.424;2023-04-15T04:24:26;9.70;99.90
23471;DHT22;11908;50.806;4.424;2023-04-15T04:26:51;9.70;99.90
23471;DHT22;11908;50.806;4.424;2023-04-15T04:29:17;9.80;99.90
23471;DHT22;11908;50.806;4.424;2023-04-15T04:31:43;9.80;99.90
23471;DHT22;11908;50.806;4.424;2023-04-15T04:34:08;9.70;99.90
23471;DHT22;11908;50.806;4.424;2023-04-15T04:36:34;9.80;99.90
23471;DHT22;11908;50.806;4.424;2023-04-15T04:39:00;9.90;99.90
23471;DHT22;11908;50.806;4.424;2023-04-15T04:41:26;9.90;99.90
23471;DHT22;11908;50.806;4.424;2023-04-15T04:43:52;9.80;99.90
23471;DHT22;11908;50.806;4.424;2023-04-15T04:46:17;9.90;99.90
23471;DHT22;11908;50.806;4.424;2023-04-15T04:48:43;9.90;99.90
23471;DHT22;11908;50.806;4.424;2023-04-15T04:51:09;9.90;99.90
23471;DHT22;11908;50.806;4.424;2023-04-15T04:53:35;9.80;99.90
23471;DHT22;11908;50.806;4.424;2023-04-15T04:56:02;9.80;99.90
23471;DHT22;11908;50.806;4.424;2023-04-15T04:58:28;9.70;99.90
23471;DHT22;11908;50.806;4.424;2023-04-15T05:00:53;9.70;99.90
23471;DHT22;11908;50.806;4.424;2023-04-15T05:03:19;9.80;99.90
23471;DHT22;11908;50.806;4.424;2023-04-15T05:05:46;9.90;99.90
23471;DHT22;11908;50.806;4.424;2023-04-15T05:08:13;9.80;99.90
23471;DHT22;11908;50.806;4.424;2023-04-15T05:10:39;9.80;99.90
23471;DHT22;11908;50.806;4.424;2023-04-15T05:13:05;9.70;99.90
23471;DHT22;11908;50.806;4.424;2023-04-15T05:15:31;9.70;99.90
23471;DHT22;11908;50.806;4.424;2023-04-15T05:17:57;9.60;99.90
23471;DHT22;11908;50.806;4.424;2023-04-15T05:20:22;9.60;99.90
23471;DHT22;11908;50.806;4.424;2023-04-15T05:22:48;9.80;99.90
23471;DHT22;11908;50.806;4.424;2023-04-15T05:25:14;9.90;99.90
23471;DHT22;11908;50.806;4.424;2023-04-15T05:27:40;10.00;99.90
23471;DHT22;11908;50.806;4.424;2023-04-15T05:30:06;9.90;99.90
23471;DHT22;11908;50.806;4.424;2023-04-15T05:32:33;9.80;99.90
23471;DHT22;11908;50.806;4.424;2023-04-15T05:34:59;9.80;99.90
23471;DHT22;11908;50.806;4.424;2023-04-15T05:37:24;9.80;99.90
23471;DHT22;11908;50.806;4.424;2023-04-15T05:39:50;9.90;99.90
23471;DHT22;11908;50.806;4.424;2023-04-15T05:42:16;9.90;99.90
23471;DHT22;11908;50.806;4.424;2023-04-15T05:44:42;9.90;99.90
23471;DHT22;11908;50.806;4.424;2023-04-15T05:47:07;9.80;99.90
23471;DHT22;11908;50.806;4.424;2023-04-15T05:49:34;9.80;99.90
23471;DHT22;11908;50.806;4.424;2023-04-15T05:52:00;9.60;99.90
23471;DHT22;11908;50.806;4.424;2023-04-15T05:54:26;9.60;99.90
23471;DHT22;11908;50.806;4.424;2023-04-15T05:56:52;9.60;99.90
23471;DHT22;11908;50.806;4.424;2023-04-15T05:59:18;9.70;99.90
23471;DHT22;11908;50.806;4.424;2023-04-15T06:01:44;9.70;99.90
23471;DHT22;11908;50.806;4.424;2023-04-15T06:04:10;9.70;99.90
23471;DHT22;11908;50.806;4.424;2023-04-15T06:06:36;9.70;99.90
23471;DHT22;11908;50.806;4.424;2023-04-15T06:09:02;9.80;99.90
23471;DHT22;11908;50.806;4.424;2023-04-15T06:11:28;9.80;99.90
23471;DHT22;11908;50.806;4.424;2023-04-15T06:13:54;9.70;99.90
23471;DHT22;11908;50.806;4.424;2023-04-15T06:16:19;9.80;99.90
23471;DHT22;11908;50.806;4.424;2023-04-15T06:18:45;9.80;99.90
23471;DHT22;11908;50.806;4.424;2023-04-15T06:21:11;10.00;99.90
23471;DHT22;11908;50.806;4.424;2023-04-15T06:23:37;10.10;99.90
23471;DHT22;11908;50.806;4.424;2023-04-15T06:26:02;10.20;99.90
23471;DHT22;11908;50.806;4.424;2023-04-15T06:28:28;10.50;99.90
23471;DHT22;11908;50.806;4.424;2023-04-15T06:30:54;10.70;99.90
23471;DHT22;11908;50.806;4.424;2023-04-15T06:33:20;10.80;99.90
23471;DHT22;11908;50.806;4.424;2023-04-15T06:35:45;11.00;99.90
23471;DHT22;11908;50.806;4.424;2023-04-15T06:38:11;11.20;99.90
23471;DHT22;11908;50.806;4.424;2023-04-15T06:40:38;11.20;99.90
23471;DHT22;11908;50.806;4.424;2023-04-15T06:43:05;11.20;99.90
23471;DHT22;11908;50.806;4.424;2023-04-15T06:45:30;11.30;99.90
23471;DHT22;11908;50.806;4.424;2023-04-15T06:47:56;11.40;99.90
23471;DHT22;11908;50.806;4.424;2023-04-15T06:50:22;11.50;99.90
23471;DHT22;11908;50.806;4.424;2023-04-15T06:52:48;11.50;99.90
23471;DHT22;11908;50.806;4.424;2023-04-15T06:55:14;11.70;99.90
23471;DHT22;11908;50.806;4.424;2023-04-15T06:57:40;11.90;99.90
23471;DHT22;11908;50.806;4.424;2023-04-15T07:00:06;12.00;99.90
23471;DHT22;11908;50.806;4.424;2023-04-15T07:02:32;12.10;99.90
23471;DHT22;11908;50.806;4.424;2023-04-15T07:04:58;12.00;99.90
23471;DHT22;11908;50.806;4.424;2023-04-15T07:07:24;12.30;99.90
23471;DHT22;11908;50.806;4.424;2023-04-15T07:09:50;12.70;99.90
23471;DHT22;11908;50.806;4.424;2023-04-15T07:12:18;12.90;99.90
23471;DHT22;11908;50.806;4.424;2023-04-15T07:14:43;13.30;99.90
23471;DHT22;11908;50.806;4.424;2023-04-15T07:17:09;13.70;99.90
23471;DHT22;11908;50.806;4.424;2023-04-15T07:19:35;13.90;99.90
23471;DHT22;11908;50.806;4.424;2023-04-15T07:22:01;13.80;99.90
23471;DHT22;11908;50.806;4.424;2023-04-15T07:24:27;14.00;99.90
23471;DHT22;11908;50.806;4.424;2023-04-15T07:26:55;14.00;99.90
23471;DHT22;11908;50.806;4.424;2023-04-15T07:29:22;14.00;99.90
23471;DHT22;11908;50.806;4.424;2023-04-15T07:31:48;13.70;99.90
23471;DHT22;11908;50.806;4.424;2023-04-15T07:34:14;13.90;99.90
23471;DHT22;11908;50.806;4.424;2023-04-15T07:36:41;14.00;99.90
23471;DHT22;11908;50.806;4.424;2023-04-15T07:39:06;14.10;99.90
23471;DHT22;11908;50.806;4.424;2023-04-15T07:41:32;14.30;99.90
23471;DHT22;11908;50.806;4.424;2023-04-15T07:43:58;14.50;99.90
23471;DHT22;11908;50.806;4.424;2023-04-15T07:46:23;14.60;99.90
23471;DHT22;11908;50.806;4.424;2023-04-15T07:48:51;15.30;99.90
23471;DHT22;11908;50.806;4.424;2023-04-15T07:51:17;15.60;99.90
23471;DHT22;11908;50.806;4.424;2023-04-15T07:53:43;15.90;99.90
23471;DHT22;11908;50.806;4.424;2023-04-15T07:56:09;16.40;99.90
23471;DHT22;11908;50.806;4.424;2023-04-15T07:58:35;16.50;99.90
23471;DHT22;11908;50.806;4.424;2023-04-15T08:01:03;16.20;99.90
23471;DHT22;11908;50.806;4.424;2023-04-15T08:03:29;15.70;99.90
23471;DHT22;11908;50.806;4.424;2023-04-15T08:05:54;15.30;99.90
23471;DHT22;11908;50.806;4.424;2023-04-15T08:08:20;15.50;99.90
23471;DHT22;11908;50.806;4.424;2023-04-15T08:10:46;16.80;99.90
23471;DHT22;11908;50.806;4.424;2023-04-15T08:13:12;17.50;99.90
23471;DHT22;11908;50.806;4.424;2023-04-15T08:15:37;17.50;99.90
23471;DHT22;11908;50.806;4.424;2023-04-15T08:18:03;18.10;99.90
23471;DHT22;11908;50.806;4.424;2023-04-15T08:20:29;18.20;99.90
23471;DHT22;11908;50.806;4.424;2023-04-15T08:22:55;18.50;99.90
23471;DHT22;11908;50.806;4.424;2023-04-15T08:25:20;18.20;99.90
23471;DHT22;11908;50.806;4.424;2023-04-15T08:27:46;18.50;99.90
23471;DHT22;11908;50.806;4.424;2023-04-15T08:30:12;18.20;99.90
23471;DHT22;11908;50.806;4.424;2023-04-15T08:32:38;18.10;99.90
23471;DHT22;11908;50.806;4.424;2023-04-15T08:35:04;18.10;99.90
23471;DHT22;11908;50.806;4.424;2023-04-15T08:37:30;18.00;99.90
23471;DHT22;11908;50.806;4.424;2023-04-15T08:39:56;17.60;99.90
23471;DHT22;11908;50.806;4.424;2023-04-15T08:42:30;17.20;99.90
23471;DHT22;11908;50.806;4.424;2023-04-15T08:44:58;16.90;99.90
23471;DHT22;11908;50.806;4.424;2023-04-15T08:47:29;16.90;99.90
23471;DHT22;11908;50.806;4.424;2023-04-15T08:49:56;16.90;99.90
23471;DHT22;11908;50.806;4.424;2023-04-15T08:52:25;16.80;99.90
23471;DHT22;11908;50.806;4.424;2023-04-15T08:54:54;16.60;99.90
23471;DHT22;11908;50.806;4.424;2023-04-15T08:57:26;17.10;99.90
23471;DHT22;11908;50.806;4.424;2023-04-15T08:59:56;17.40;99.90
23471;DHT22;11908;50.806;4.424;2023-04-15T09:02:23;18.00;99.90
23471;DHT22;11908;50.806;4.424;2023-04-15T09:04:50;18.30;99.90
23471;DHT22;11908;50.806;4.424;2023-04-15T09:07:16;18.70;99.90
23471;DHT22;11908;50.806;4.424;2023-04-15T09:09:42;18.80;99.90
23471;DHT22;11908;50.806;4.424;2023-04-15T09:12:08;18.60;99.90
23471;DHT22;11908;50.806;4.424;2023-04-15T09:14:36;18.90;99.90
23471;DHT22;11908;50.806;4.424;2023-04-15T09:17:04;18.50;99.90
23471;DHT22;11908;50.806;4.424;2023-04-15T09:19:30;18.70;99.90
23471;DHT22;11908;50.806;4.424;2023-04-15T09:21:58;19.40;99.90
23471;DHT22;11908;50.806;4.424;2023-04-15T09:24:25;20.10;99.90
23471;DHT22;11908;50.806;4.424;2023-04-15T09:26:52;20.00;99.90
23471;DHT22;11908;50.806;4.424;2023-04-15T09:29:23;19.80;99.90
23471;DHT22;11908;50.806;4.424;2023-04-15T09:31:49;19.50;99.90
23471;DHT22;11908;50.806;4.424;2023-04-15T09:34:16;19.40;99.90
23471;DHT22;11908;50.806;4.424;2023-04-15T09:39:10;19.10;99.90
23471;DHT22;11908;50.806;4.424;2023-04-15T09:41:36;19.00;99.90
23471;DHT22;11908;50.806;4.424;2023-04-15T09:44:03;19.40;99.90
23471;DHT22;11908;50.806;4.424;2023-04-15T09:46:44;19.00;99.90
23471;DHT22;11908;50.806;4.424;2023-04-15T09:49:11;18.90;99.90
23471;DHT22;11908;50.806;4.424;2023-04-15T09:51:37;19.10;99.90
23471;DHT22;11908;50.806;4.424;2023-04-15T09:54:03;19.20;99.90
23471;DHT22;11908;50.806;4.424;2023-04-15T09:56:36;19.50;99.90
23471;DHT22;11908;50.806;4.424;2023-04-15T09:59:04;19.60;99.90
23471;DHT22;11908;50.806;4.424;2023-04-15T10:01:30;20.10;99.90
23471;DHT22;11908;50.806;4.424;2023-04-15T10:03:56;19.30;99.90
23471;DHT22;11908;50.806;4.424;2023-04-15T10:06:26;18.80;99.90
23471;DHT22;11908;50.806;4.424;2023-04-15T10:08:53;18.10;99.90
23471;DHT22;11908;50.806;4.424;2023-04-15T10:11:20;18.60;99.90
23471;DHT22;11908;50.806;4.424;2023-04-15T10:13:49;18.60;99.90
23471;DHT22;11908;50.806;4.424;2023-04-15T10:16:16;18.40;99.90
23471;DHT22;11908;50.806;4.424;2023-04-15T10:18:50;18.70;99.90
23471;DHT22;11908;50.806;4.424;2023-04-15T10:21:17;19.50;99.90
23471;DHT22;11908;50.806;4.424;2023-04-15T10:23:47;19.50;99.90
23471;DHT22;11908;50.806;4.424;2023-04-15T10:26:13;19.70;99.90
23471;DHT22;11908;50.806;4.424;2023-04-15T10:28:40;20.00;99.90
23471;DHT22;11908;50.806;4.424;2023-04-15T10:31:06;19.50;99.90
23471;DHT22;11908;50.806;4.424;2023-04-15T10:33:33;19.60;99.90
23471;DHT22;11908;50.806;4.424;2023-04-15T10:35:59;19.70;99.90
23471;DHT22;11908;50.806;4.424;2023-04-15T10:38:37;19.50;99.90
23471;DHT22;11908;50.806;4.424;2023-04-15T10:41:25;19.70;99.90
23471;DHT22;11908;50.806;4.424;2023-04-15T10:43:56;19.30;99.90
23471;DHT22;11908;50.806;4.424;2023-04-15T10:49:09;19.10;99.90
23471;DHT22;11908;50.806;4.424;2023-04-15T10:51:42;19.00;99.90
23471;DHT22;11908;50.806;4.424;2023-04-15T10:59:30;18.50;99.90
23471;DHT22;11908;50.806;4.424;2023-04-15T11:01:59;19.10;99.90
23471;DHT22;11908;50.806;4.424;2023-04-15T11:04:54;19.90;99.90
23471;DHT22;11908;50.806;4.424;2023-04-15T11:09:58;19.60;98.90
23471;DHT22;11908;50.806;4.424;2023-04-15T11:12:33;19.70;94.40
23471;DHT22;11908;50.806;4.424;2023-04-15T11:18:21;18.40;94.70
23471;DHT22;11908;50.806;4.424;2023-04-15T11:20:54;18.70;96.60
23471;DHT22;11908;50.806;4.424;2023-04-15T11:23:40;18.70;94.10
23471;DHT22;11908;50.806;4.424;2023-04-15T11:26:13;19.10;89.80
23471;DHT22;11908;50.806;4.424;2023-04-15T11:28:41;19.10;78.60
23471;DHT22;11908;50.806;4.424;2023-04-15T11:31:08;18.60;83.80
23471;DHT22;11908;50.806;4.424;2023-04-15T11:33:35;18.50;90.50
23471;DHT22;11908;50.806;4.424;2023-04-15T11:36:01;18.60;91.30
23471;DHT22;11908;50.806;4.424;2023-04-15T11:38:28;18.60;93.30
23471;DHT22;11908;50.806;4.424;2023-04-15T11:40:54;18.50;94.60
23471;DHT22;11908;50.806;4.424;2023-04-15T11:43:21;18.70;91.20
23471;DHT22;11908;50.806;4.424;2023-04-15T11:45:52;18.50;90.40
23471;DHT22;11908;50.806;4.424;2023-04-15T11:48:21;18.20;87.80
23471;DHT22;11908;50.806;4.424;2023-04-15T11:50:56;18.00;87.70
23471;DHT22;11908;50.806;4.424;2023-04-15T11:53:22;18.00;86.00
23471;DHT22;11908;50.806;4.424;2023-04-15T11:55:50;17.90;85.80
23471;DHT22;11908;50.806;4.424;2023-04-15T11:58:24;17.90;86.80
23471;DHT22;11908;50.806;4.424;2023-04-15T12:00:58;18.00;90.00
23471;DHT22;11908;50.806;4.424;2023-04-15T12:14:25;18.80;85.60
23471;DHT22;11908;50.806;4.424;2023-04-15T12:17:06;18.90;83.70
23471;DHT22;11908;50.806;4.424;2023-04-15T12:19:37;18.50;83.50
23471;DHT22;11908;50.806;4.424;2023-04-15T12:22:11;18.70;85.20
23471;DHT22;11908;50.806;4.424;2023-04-15T12:24:37;18.50;87.50
23471;DHT22;11908;50.806;4.424;2023-04-15T12:27:08;18.30;88.40
23471;DHT22;11908;50.806;4.424;2023-04-15T12:29:35;18.20;85.70
23471;DHT22;11908;50.806;4.424;2023-04-15T12:34:34;17.50;86.50
23471;DHT22;11908;50.806;4.424;2023-04-15T12:37:02;17.40;88.00
23471;DHT22;11908;50.806;4.424;2023-04-15T12:39:37;17.90;90.80
23471;DHT22;11908;50.806;4.424;2023-04-15T12:42:03;18.10;87.60
23471;DHT22;11908;50.806;4.424;2023-04-15T12:44:30;18.10;84.10
23471;DHT22;11908;50.806;4.424;2023-04-15T12:46:56;18.00;78.60
23471;DHT22;11908;50.806;4.424;2023-04-15T12:49:22;18.00;80.80
23471;DHT22;11908;50.806;4.424;2023-04-15T12:51:49;17.90;82.30
23471;DHT22;11908;50.806;4.424;2023-04-15T12:54:16;17.80;85.40
23471;DHT22;11908;50.806;4.424;2023-04-15T12:56:42;17.90;86.20
23471;DHT22;11908;50.806;4.424;2023-04-15T12:59:08;17.70;83.90
23471;DHT22;11908;50.806;4.424;2023-04-15T13:01:34;17.80;89.90
23471;DHT22;11908;50.806;4.424;2023-04-15T13:04:00;17.80;83.70
23471;DHT22;11908;50.806;4.424;2023-04-15T13:06:26;17.50;86.10
23471;DHT22;11908;50.806;4.424;2023-04-15T13:08:53;17.40;84.70
23471;DHT22;11908;50.806;4.424;2023-04-15T13:11:21;17.40;88.70
23471;DHT22;11908;50.806;4.424;2023-04-15T13:13:46;17.70;89.20
23471;DHT22;11908;50.806;4.424;2023-04-15T13:16:12;17.70;88.40
23471;DHT22;11908;50.806;4.424;2023-04-15T13:18:38;17.50;90.40
23471;DHT22;11908;50.806;4.424;2023-04-15T13:21:04;17.50;90.40
23471;DHT22;11908;50.806;4.424;2023-04-15T13:23:32;17.50;82.50
23471;DHT22;11908;50.806;4.424;2023-04-15T13:25:58;17.20;83.40
23471;DHT22;11908;50.806;4.424;2023-04-15T13:28:23;16.80;86.00
23471;DHT22;11908;50.806;4.424;2023-04-15T13:30:49;16.90;90.00
23471;DHT22;11908;50.806;4.424;2023-04-15T13:33:16;17.00;87.40
23471;DHT22;11908;50.806;4.424;2023-04-15T13:35:41;16.90;84.50
23471;DHT22;11908;50.806;4.424;2023-04-15T13:38:07;16.70;87.90
23471;DHT22;11908;50.806;4.424;2023-04-15T13:40:33;16.70;92.40
23471;DHT22;11908;50.806;4.424;2023-04-15T13:42:59;16.70;92.70
23471;DHT22;11908;50.806;4.424;2023-04-15T13:45:25;16.70;93.20
23471;DHT22;11908;50.806;4.424;2023-04-15T13:47:51;16.50;94.60
23471;DHT22;11908;50.806;4.424;2023-04-15T13:50:17;16.60;96.00
23471;DHT22;11908;50.806;4.424;2023-04-15T13:52:43;16.90;95.70
23471;DHT22;11908;50.806;4.424;2023-04-15T13:55:09;17.20;96.80
23471;DHT22;11908;50.806;4.424;2023-04-15T13:57:35;17.30;93.20
23471;DHT22;11908;50.806;4.424;2023-04-15T14:00:01;17.30;93.40
23471;DHT22;11908;50.806;4.424;2023-04-15T14:02:28;17.30;92.60
23471;DHT22;11908;50.806;4.424;2023-04-15T14:04:55;16.80;92.20
23471;DHT22;11908;50.806;4.424;2023-04-15T14:07:22;16.60;94.60
23471;DHT22;11908;50.806;4.424;2023-04-15T14:09:47;16.50;92.50
23471;DHT22;11908;50.806;4.424;2023-04-15T14:12:13;16.40;92.20
23471;DHT22;11908;50.806;4.424;2023-04-15T14:14:39;16.30;93.70
23471;DHT22;11908;50.806;4.424;2023-04-15T14:17:05;16.40;94.40
23471;DHT22;11908;50.806;4.424;2023-04-15T14:19:31;16.50;94.90
23471;DHT22;11908;50.806;4.424;2023-04-15T14:21:57;16.50;95.10
23471;DHT22;11908;50.806;4.424;2023-04-15T14:24:23;16.30;95.00
23471;DHT22;11908;50.806;4.424;2023-04-15T14:26:49;16.40;96.50
23471;DHT22;11908;50.806;4.424;2023-04-15T14:29:15;16.40;97.10
23471;DHT22;11908;50.806;4.424;2023-04-15T14:31:41;16.20;98.10
23471;DHT22;11908;50.806;4.424;2023-04-15T14:34:09;16.10;98.50
23471;DHT22;11908;50.806;4.424;2023-04-15T14:36:34;16.10;98.60
23471;DHT22;11908;50.806;4.424;2023-04-15T14:39:00;16.20;97.80
23471;DHT22;11908;50.806;4.424;2023-04-15T14:41:26;16.00;96.60
23471;DHT22;11908;50.806;4.424;2023-04-15T14:43:51;15.90;96.90
23471;DHT22;11908;50.806;4.424;2023-04-15T14:46:17;15.80;97.40
23471;DHT22;11908;50.806;4.424;2023-04-15T14:48:43;15.70;96.90
23471;DHT22;11908;50.806;4.424;2023-04-15T14:51:08;15.70;96.10
23471;DHT22;11908;50.806;4.424;2023-04-15T14:53:34;15.70;95.90
23471;DHT22;11908;50.806;4.424;2023-04-15T14:56:00;15.70;95.90
23471;DHT22;11908;50.806;4.424;2023-04-15T14:58:25;15.90;96.40
23471;DHT22;11908;50.806;4.424;2023-04-15T15:00:51;15.70;96.50
23471;DHT22;11908;50.806;4.424;2023-04-15T15:03:17;15.60;98.10
23471;DHT22;11908;50.806;4.424;2023-04-15T15:05:44;15.50;98.60
23471;DHT22;11908;50.806;4.424;2023-04-15T15:08:11;15.40;99.10
23471;DHT22;11908;50.806;4.424;2023-04-15T15:10:38;15.40;99.90
23471;DHT22;11908;50.806;4.424;2023-04-15T15:13:06;15.40;99.90
23471;DHT22;11908;50.806;4.424;2023-04-15T15:15:33;15.60;99.90
23471;DHT22;11908;50.806;4.424;2023-04-15T15:17:59;15.90;99.90
23471;DHT22;11908;50.806;4.424;2023-04-15T15:20:25;15.90;99.90
23471;DHT22;11908;50.806;4.424;2023-04-15T15:22:51;16.00;99.90
23471;DHT22;11908;50.806;4.424;2023-04-15T15:25:17;16.10;99.90
23471;DHT22;11908;50.806;4.424;2023-04-15T15:27:42;16.20;99.90
23471;DHT22;11908;50.806;4.424;2023-04-15T15:30:08;15.90;99.90
23471;DHT22;11908;50.806;4.424;2023-04-15T15:32:34;15.70;99.90
23471;DHT22;11908;50.806;4.424;2023-04-15T15:35:00;15.70;99.90
23471;DHT22;11908;50.806;4.424;2023-04-15T15:37:26;15.60;99.90
23471;DHT22;11908;50.806;4.424;2023-04-15T15:39:52;15.50;99.90
23471;DHT22;11908;50.806;4.424;2023-04-15T15:42:21;15.30;99.90
23471;DHT22;11908;50.806;4.424;2023-04-15T15:44:47;15.00;99.90
23471;DHT22;11908;50.806;4.424;2023-04-15T15:47:14;15.00;99.90
23471;DHT22;11908;50.806;4.424;2023-04-15T15:49:40;15.10;99.90
23471;DHT22;11908;50.806;4.424;2023-04-15T15:52:06;15.00;99.90
23471;DHT22;11908;50.806;4.424;2023-04-15T15:54:32;15.00;99.90
23471;DHT22;11908;50.806;4.424;2023-04-15T15:56:57;14.90;99.90
23471;DHT22;11908;50.806;4.424;2023-04-15T15:59:23;15.00;99.90